Aitkin, Minnesota
Current Conditions -  °F | °C
As of 3:14 AM on Thursday 23 Oct 2014 (Local Time) from KAIT Reporting Station
Unknown Precip Unknown Precip  
Wind Chill: 11°   Ceiling: 1400
Heat Index: 11°   Visibility: 7mi
Dew Point:   Wind: 6mph
Humidity: 82%   Direction: 180°S
Pressure: 29.94"   Gusts: NA
Location:  46.53°N, 93.71°W
Report Text: KAIT 230814Z AUTO 18005KT 7SM UP BKN014 OVC019 11/08 A2994 RMK AO2 P0001
Loading
Personal Weather Stations






























Interactive Weather Map
Tropical Storm Tracking
New forecast layout! Learn more

10-Day Weather Forecast

Advertisements
Track Severe Weather on mobile